Shokyu Maru — JG5288 — position and weather

sailwx.info

Track history (hours):
 
Tides and Currents Weather Stations Pressure Air Temp Water Temp Dewpoint Dewpoint Depression Visibility Wind Speed Wind Dir Waves Ship Positions

Shokyu Maru

Last reported at 2015-Apr-01 00:31 UTC. Time now 2015-Apr-01 01:08 UTC.
Position N 35°41' E 139°56'.

Length 91 m; draft 3.9 m.

Type: Tanker. MMSI: 431000253.

Date/timePositionNaut miles runAvg speedWind from/ knotsBaromVisibWave heightAir tempDewpointWater temp
2015-Apr-01 00:31N 35°41' E 139°56'0 0.0
2015-Mar-31 23:25N 35°41' E 139°56'0 0.0
2015-Mar-31 22:31N 35°41' E 139°56'2 2.4
2015-Mar-31 21:33N 35°39' E 139°58'5 3.3
2015-Mar-31 20:07N 35°35' E 139°55'0 0.1
2015-Mar-31 19:31N 35°35' E 139°55'0 0.0
2015-Mar-31 18:31N 35°35' E 139°55'0 0.0
2015-Mar-31 17:31N 35°35' E 139°55'0 0.0
2015-Mar-31 16:31N 35°35' E 139°55'0 0.0
2015-Mar-31 15:28N 35°35' E 139°55'0 0.0
2015-Mar-31 14:28N 35°35' E 139°55'0 0.0
2015-Mar-31 13:31N 35°35' E 139°55'0 0.0
2015-Mar-31 12:25N 35°35' E 139°55'6 6.7
2015-Mar-31 11:33N 35°31' E 139°50'1110.6
2015-Mar-31 10:33N 35°24' E 139°40'1 1.0
2015-Mar-31 09:33N 35°24' E 139°40'0 0.0
2015-Mar-31 08:33N 35°24' E 139°40'0 0.0
2015-Mar-31 07:33N 35°24' E 139°40'0 0.0
2015-Mar-31 06:30N 35°24' E 139°40'0 0.0
2015-Mar-31 05:33N 35°24' E 139°40'1 1.2
2015-Mar-31 04:33N 35°24' E 139°41'9 9.4
2015-Mar-31 03:33N 35°30' E 139°49'10 9.7
2015-Mar-31 02:34N 35°37' E 139°57'4 3.8
2015-Mar-31 01:33N 35°41' E 139°56'0 0.0
2015-Mar-31 00:33N 35°41' E 139°56'0 0.0
2015-Mar-30 23:30N 35°41' E 139°56'0 0.0
2015-Mar-30 22:12N 35°41' E 139°56'2 3.4
2015-Mar-30 21:33N 35°39' E 139°58'5 4.8
2015-Mar-30 20:32N 35°35' E 139°55'0 0.1
2015-Mar-30 19:32N 35°35' E 139°55'0 0.0
2015-Mar-30 18:32N 35°35' E 139°55'0 0.1
2015-Mar-30 17:26N 35°35' E 139°55'0 0.0
2015-Mar-30 16:14N 35°35' E 139°55'0 0.0
2015-Mar-30 15:20N 35°35' E 139°55'0 0.0
2015-Mar-30 14:32N 35°35' E 139°55'0 0.0
2015-Mar-30 13:32N 35°35' E 139°55'0 0.0
2015-Mar-30 12:27N 35°35' E 139°55'0 0.1
2015-Mar-30 11:33N 35°35' E 139°55'5 5.4
2015-Mar-30 10:33N 35°31' E 139°51'1110.9
2015-Mar-30 09:34N 35°23' E 139°41'1 1.4
2015-Mar-30 08:31N 35°24' E 139°40'0 0.0
2015-Mar-30 07:31N 35°24' E 139°40'0 0.0
2015-Mar-30 06:28N 35°24' E 139°40'0 0.0
2015-Mar-30 05:31N 35°24' E 139°40'0 0.0
2015-Mar-30 04:31N 35°24' E 139°40'6 6.3
2015-Mar-30 03:33N 35°27' E 139°46'1110.8
2015-Mar-30 02:33N 35°35' E 139°55'6 5.3
2015-Mar-30 01:30N 35°41' E 139°56'0 0.0
2015-Mar-30 00:30N 35°41' E 139°56'0 0.0
2015-Mar-29 23:30N 35°41' E 139°56'0 0.0
2015-Mar-29 22:18N 35°41' E 139°56'2 3.2
2015-Mar-29 21:33N 35°39' E 139°58'5 4.2
2015-Mar-29 20:24N 35°35' E 139°55'0 0.0
2015-Mar-29 19:31N 35°35' E 139°55'0 0.0
2015-Mar-29 18:18N 35°35' E 139°55'0 0.0
2015-Mar-29 17:30N 35°35' E 139°55'0 0.0
2015-Mar-29 15:30N 35°35' E 139°55'0 0.0
2015-Mar-29 14:18N 35°35' E 139°55'0 0.0
2015-Mar-29 13:12N 35°35' E 139°55'0 0.0
2015-Mar-29 12:18N 35°35' E 139°55'0 0.0
2015-Mar-29 11:30N 35°35' E 139°55'0 0.1
2015-Mar-29 10:30N 35°35' E 139°55'0 0.0
2015-Mar-29 09:18N 35°35' E 139°55'3 3.7
2015-Mar-29 08:33N 35°33' E 139°58'4 3.4
2015-Mar-29 07:18N 35°32' E 140°03'0 0.0
2015-Mar-29 06:24N 35°32' E 140°03'0 0.0
2015-Mar-29 04:24N 35°32' E 140°03'2 2.1
2015-Mar-29 03:32N 35°33' E 140°01'4 3.7
2015-Mar-29 02:33N 35°32' E 139°57'9 8.6
2015-Mar-29 01:33N 35°40' E 139°57'1 0.5
2015-Mar-29 00:29N 35°41' E 139°56'0 0.0
2015-Mar-28 23:29N 35°41' E 139°56'0 0.0
2015-Mar-28 22:17N 35°41' E 139°56'3 3.4
2015-Mar-28 21:30N 35°38' E 139°58'5 4.1
2015-Mar-28 20:24N 35°35' E 139°55'0 0.0
2015-Mar-28 19:27N 35°35' E 139°55'0 0.0
2015-Mar-28 18:31N 35°35' E 139°55'0 0.0
2015-Mar-28 17:30N 35°35' E 139°55'0 0.0
2015-Mar-28 16:29N 35°35' E 139°55'0 0.0
2015-Mar-28 15:30N 35°35' E 139°55'0 0.0
2015-Mar-28 14:28N 35°35' E 139°55'0 0.0
2015-Mar-28 13:33N 35°35' E 139°55'0 0.0
2015-Mar-28 12:32N 35°35' E 139°55'0 0.0
2015-Mar-28 11:33N 35°35' E 139°55'0 0.0
2015-Mar-28 10:12N 35°35' E 139°55'4 5.9
2015-Mar-28 09:33N 35°32' E 139°52'1111.2
2015-Mar-28 08:33N 35°24' E 139°42'2 2.0
2015-Mar-28 07:33N 35°24' E 139°40'0 0.0
2015-Mar-28 06:33N 35°24' E 139°40'0 0.0
2015-Mar-28 05:33N 35°24' E 139°40'0 0.0
2015-Mar-28 04:33N 35°24' E 139°40'2 2.4
2015-Mar-28 03:33N 35°25' E 139°42'1111.4
2015-Mar-28 02:33N 35°32' E 139°53'9 8.1
2015-Mar-28 01:29N 35°41' E 139°56'0 0.0
2015-Mar-27 23:32N 35°41' E 139°56'0 0.0
2015-Mar-27 22:32N 35°41' E 139°56'2 2.2
2015-Mar-27 21:33N 35°39' E 139°58'5 4.4
2015-Mar-27 20:27N 35°35' E 139°55'0 0.0
2015-Mar-27 19:24N 35°35' E 139°55'0 0.0
2015-Mar-27 18:33N 35°35' E 139°55'0 0.0
2015-Mar-27 17:33N 35°35' E 139°55'0 0.0
2015-Mar-27 16:27N 35°35' E 139°55'0 0.0
2015-Mar-27 15:33N 35°35' E 139°55'0 0.0
2015-Mar-27 14:33N 35°35' E 139°55'0 0.0
2015-Mar-27 13:27N 35°35' E 139°55'0 0.0
2015-Mar-27 12:21N 35°35' E 139°55'0 0.0
2015-Mar-27 11:31N 35°35' E 139°55'0 0.1
2015-Mar-27 10:33N 35°35' E 139°55'8 8.3
2015-Mar-27 09:33N 35°31' E 139°46'0 0.0
2015-Mar-27 08:33N 35°31' E 139°46'0 0.0
2015-Mar-27 07:27N 35°31' E 139°46'0 0.0
2015-Mar-27 06:33N 35°31' E 139°46'0 0.0
2015-Mar-27 05:33N 35°31' E 139°46'0 0.0
2015-Mar-27 04:33N 35°31' E 139°46'7 6.8
2015-Mar-27 03:33N 35°34' E 139°54'3 2.9
2015-Mar-27 02:33N 35°36' E 139°56'5 4.5
2015-Mar-27 01:32N 35°41' E 139°56'0 0.0
2015-Mar-27 00:26N 35°41' E 139°56'0 0.0
2015-Mar-26 23:14N 35°41' E 139°56'0 0.0
2015-Mar-26 22:26N 35°41' E 139°56'3 3.2
2015-Mar-26 21:32N 35°38' E 139°59'4 4.5
2015-Mar-26 20:33N 35°35' E 139°55'0 0.0
2015-Mar-26 18:33N 35°35' E 139°55'0 0.0
2015-Mar-26 17:30N 35°35' E 139°55'0 0.0
2015-Mar-26 16:24N 35°35' E 139°55'0 0.0
2015-Mar-26 15:27N 35°35' E 139°55'0 0.1
2015-Mar-26 14:27N 35°35' E 139°55'0 0.0
2015-Mar-26 13:21N 35°35' E 139°55'0 0.1
2015-Mar-26 12:27N 35°35' E 139°55'3 3.5
2015-Mar-26 11:33N 35°32' E 139°57'4 3.7
2015-Mar-26 10:22N 35°29' E 140°01'0 0.0
2015-Mar-26 09:28N 35°29' E 140°01'0 0.0
2015-Mar-26 08:22N 35°29' E 140°01'0 0.0
2015-Mar-26 07:16N 35°29' E 140°01'0 0.0
2015-Mar-26 06:22N 35°29' E 140°01'3 2.9
2015-Mar-26 05:28N 35°30' E 139°58'4 4.5
2015-Mar-26 04:33N 35°34' E 139°56'2 1.7
2015-Mar-26 03:32N 35°35' E 139°55'4 4.0
2015-Mar-26 02:33N 35°38' E 139°59'3 2.8
2015-Mar-26 01:31N 35°41' E 139°56'0 0.0
2015-Mar-26 00:24N 35°41' E 139°56'0 0.0
2015-Mar-25 23:30N 35°41' E 139°56'0 0.0
2015-Mar-25 22:30N 35°41' E 139°56'2 2.4
2015-Mar-25 21:33N 35°39' E 139°58'5 3.3
2015-Mar-25 20:05N 35°34' E 139°55'0 0.0
2015-Mar-25 19:29N 35°34' E 139°55'0 0.0
2015-Mar-25 18:29N 35°34' E 139°55'0 0.0
2015-Mar-25 17:29N 35°34' E 139°55'0 0.0
2015-Mar-25 16:23N 35°34' E 139°55'0 0.0
2015-Mar-25 15:29N 35°34' E 139°55'0 0.0
2015-Mar-25 14:29N 35°34' E 139°55'1 1.2
2015-Mar-25 13:33N 35°33' E 139°56'7 5.9
2015-Mar-25 12:27N 35°28' E 140°01'0 0.0
2015-Mar-25 11:30N 35°28' E 140°01'0 0.0
2015-Mar-25 10:33N 35°28' E 140°01'0 0.0
2015-Mar-25 09:30N 35°28' E 140°01'0 0.0
2015-Mar-25 08:33N 35°28' E 140°01'0 0.1
2015-Mar-25 07:33N 35°28' E 140°01'3 2.8
2015-Mar-25 06:29N 35°30' E 139°58'0 0.0
2015-Mar-25 05:17N 35°30' E 139°58'0 0.0
2015-Mar-25 04:29N 35°30' E 139°58'0 0.0
2015-Mar-25 03:05N 35°30' E 139°58'1 1.0
2015-Mar-25 02:33N 35°30' E 139°58'10 9.7
2015-Mar-25 01:33N 35°25' E 139°47'9 9.4
2015-Mar-25 00:33N 35°17' E 139°41'0 0.3
2015-Mar-24 23:25N 35°17' E 139°41'0 0.0
2015-Mar-24 22:28N 35°17' E 139°41'0 0.0
2015-Mar-24 21:31N 35°17' E 139°41'0 0.0
2015-Mar-24 20:31N 35°17' E 139°41'0 0.0
2015-Mar-24 19:31N 35°17' E 139°41'0 0.0
2015-Mar-24 18:31N 35°17' E 139°41'0 0.0
2015-Mar-24 17:31N 35°17' E 139°41'0 0.0
2015-Mar-24 16:31N 35°17' E 139°41'0 0.0
2015-Mar-24 15:31N 35°17' E 139°41'0 0.0
2015-Mar-24 14:31N 35°17' E 139°41'0 0.0
2015-Mar-24 13:31N 35°17' E 139°41'0 0.0
2015-Mar-24 12:31N 35°17' E 139°41'0 0.0
2015-Mar-24 11:31N 35°17' E 139°41'0 0.0
2015-Mar-24 10:31N 35°17' E 139°41'0 0.0
2015-Mar-24 09:28N 35°17' E 139°41'0 0.0
2015-Mar-24 08:31N 35°17' E 139°41'0 0.0
2015-Mar-24 07:31N 35°17' E 139°41'0 0.0
2015-Mar-24 06:31N 35°17' E 139°41'0 0.0
2015-Mar-24 05:31N 35°17' E 139°41'4 4.6
2015-Mar-24 04:33N 35°21' E 139°41'1110.9
2015-Mar-24 03:33N 35°29' E 139°50'1211.4
2015-Mar-24 02:33N 35°38' E 139°58'3 2.8
2015-Mar-24 01:33N 35°41' E 139°56'0 0.0
2015-Mar-24 00:33N 35°41' E 139°56'0 0.0
2015-Mar-23 23:33N 35°41' E 139°56'0 0.0
2015-Mar-23 22:27N 35°41' E 139°56'2 2.8
2015-Mar-23 21:33N 35°39' E 139°58'4 4.2
2015-Mar-23 20:31N 35°35' E 139°55'0 0.0
2015-Mar-23 19:31N 35°35' E 139°55'0 0.0
2015-Mar-23 18:31N 35°35' E 139°55'0 0.0
2015-Mar-23 17:25N 35°35' E 139°55'0 0.1
2015-Mar-23 16:31N 35°35' E 139°54'0 0.0
2015-Mar-23 15:31N 35°36' E 139°54'0 0.0
2015-Mar-23 14:31N 35°36' E 139°54'0 0.0
2015-Mar-23 13:31N 35°35' E 139°54'1 1.4
2015-Mar-23 12:33N 35°34' E 139°54'7 6.3
2015-Mar-23 11:27N 35°31' E 139°46'0 0.0
2015-Mar-23 10:33N 35°31' E 139°46'0 0.0
2015-Mar-23 09:33N 35°31' E 139°46'0 0.0
2015-Mar-23 08:30N 35°31' E 139°46'0 0.0
2015-Mar-23 07:33N 35°31' E 139°46'0 0.0
2015-Mar-23 06:30N 35°31' E 139°46'3 3.6
2015-Mar-23 05:33N 35°28' E 139°46'10 9.5
2015-Mar-23 04:33N 35°34' E 139°54'1 1.1
2015-Mar-23 03:25N 35°35' E 139°55'1 1.1
2015-Mar-23 02:33N 35°36' E 139°56'5 4.6
2015-Mar-23 01:32N 35°41' E 139°56'0 0.0
2015-Mar-23 00:32N 35°41' E 139°56'0 0.0
2015-Mar-22 23:26N 35°41' E 139°56'0 0.0
2015-Mar-22 22:26N 35°41' E 139°56'2 2.4
2015-Mar-22 21:33N 35°39' E 139°58'5 4.6
2015-Mar-22 20:31N 35°35' E 139°55'0 0.0
2015-Mar-22 19:13N 35°35' E 139°55'0 0.0
2015-Mar-22 18:31N 35°35' E 139°55'0 0.0
2015-Mar-22 16:31N 35°35' E 139°55'0 0.0
2015-Mar-22 15:13N 35°35' E 139°55'0 0.0
2015-Mar-22 14:13N 35°35' E 139°55'0 0.0
2015-Mar-22 13:28N 35°35' E 139°55'0 0.0
2015-Mar-22 12:31N 35°35' E 139°55'0 0.0
2015-Mar-22 11:31N 35°35' E 139°55'0 0.0
2015-Mar-22 10:31N 35°35' E 139°55'0 0.0
2015-Mar-22 09:25N 35°35' E 139°55'5 5.7
2015-Mar-22 08:33N 35°31' E 139°60'1 0.3
2015-Mar-22 04:32N 35°30' E 140°00'3 2.6
2015-Mar-22 03:33N 35°32' E 139°58'3 3.2
2015-Mar-22 02:32N 35°35' E 139°55'  
Track history (hours):
 
Tides and Currents Weather Stations Pressure Air Temp Water Temp Dewpoint Dewpoint Depression Visibility Wind Speed Wind Dir Waves Ship Positions

Shokyu Maru

Last reported at 2015-Apr-01 00:31 UTC. Time now 2015-Apr-01 01:08 UTC.
Position N 35°41' E 139°56'.

Length 91 m; draft 3.9 m.

Type: Tanker. MMSI: 431000253.

Date/timePositionNaut miles runAvg speedWind from/ knotsBaromVisibWave heightAir tempDewpointWater temp
2015-Apr-01 00:31N 35°41' E 139°56'0 0.0
2015-Mar-31 23:25N 35°41' E 139°56'0 0.0
2015-Mar-31 22:31N 35°41' E 139°56'2 2.4
2015-Mar-31 21:33N 35°39' E 139°58'5 3.3
2015-Mar-31 20:07N 35°35' E 139°55'0 0.1
2015-Mar-31 19:31N 35°35' E 139°55'0 0.0
2015-Mar-31 18:31N 35°35' E 139°55'0 0.0
2015-Mar-31 17:31N 35°35' E 139°55'0 0.0
2015-Mar-31 16:31N 35°35' E 139°55'0 0.0
2015-Mar-31 15:28N 35°35' E 139°55'0 0.0
2015-Mar-31 14:28N 35°35' E 139°55'0 0.0
2015-Mar-31 13:31N 35°35' E 139°55'0 0.0
2015-Mar-31 12:25N 35°35' E 139°55'6 6.7
2015-Mar-31 11:33N 35°31' E 139°50'1110.6
2015-Mar-31 10:33N 35°24' E 139°40'1 1.0
2015-Mar-31 09:33N 35°24' E 139°40'0 0.0
2015-Mar-31 08:33N 35°24' E 139°40'0 0.0
2015-Mar-31 07:33N 35°24' E 139°40'0 0.0
2015-Mar-31 06:30N 35°24' E 139°40'0 0.0
2015-Mar-31 05:33N 35°24' E 139°40'1 1.2
2015-Mar-31 04:33N 35°24' E 139°41'9 9.4
2015-Mar-31 03:33N 35°30' E 139°49'10 9.7
2015-Mar-31 02:34N 35°37' E 139°57'4 3.8
2015-Mar-31 01:33N 35°41' E 139°56'0 0.0
2015-Mar-31 00:33N 35°41' E 139°56'0 0.0
2015-Mar-30 23:30N 35°41' E 139°56'0 0.0
2015-Mar-30 22:12N 35°41' E 139°56'2 3.4
2015-Mar-30 21:33N 35°39' E 139°58'5 4.8
2015-Mar-30 20:32N 35°35' E 139°55'0 0.1
2015-Mar-30 19:32N 35°35' E 139°55'0 0.0
2015-Mar-30 18:32N 35°35' E 139°55'0 0.1
2015-Mar-30 17:26N 35°35' E 139°55'0 0.0
2015-Mar-30 16:14N 35°35' E 139°55'0 0.0
2015-Mar-30 15:20N 35°35' E 139°55'0 0.0
2015-Mar-30 14:32N 35°35' E 139°55'0 0.0
2015-Mar-30 13:32N 35°35' E 139°55'0 0.0
2015-Mar-30 12:27N 35°35' E 139°55'0 0.1
2015-Mar-30 11:33N 35°35' E 139°55'5 5.4
2015-Mar-30 10:33N 35°31' E 139°51'1110.9
2015-Mar-30 09:34N 35°23' E 139°41'1 1.4
2015-Mar-30 08:31N 35°24' E 139°40'0 0.0
2015-Mar-30 07:31N 35°24' E 139°40'0 0.0
2015-Mar-30 06:28N 35°24' E 139°40'0 0.0
2015-Mar-30 05:31N 35°24' E 139°40'0 0.0
2015-Mar-30 04:31N 35°24' E 139°40'6 6.3
2015-Mar-30 03:33N 35°27' E 139°46'1110.8
2015-Mar-30 02:33N 35°35' E 139°55'6 5.3
2015-Mar-30 01:30N 35°41' E 139°56'0 0.0
2015-Mar-30 00:30N 35°41' E 139°56'0 0.0
2015-Mar-29 23:30N 35°41' E 139°56'0 0.0
2015-Mar-29 22:18N 35°41' E 139°56'2 3.2
2015-Mar-29 21:33N 35°39' E 139°58'5 4.2
2015-Mar-29 20:24N 35°35' E 139°55'0 0.0
2015-Mar-29 19:31N 35°35' E 139°55'0 0.0
2015-Mar-29 18:18N 35°35' E 139°55'0 0.0
2015-Mar-29 17:30N 35°35' E 139°55'0 0.0
2015-Mar-29 15:30N 35°35' E 139°55'0 0.0
2015-Mar-29 14:18N 35°35' E 139°55'0 0.0
2015-Mar-29 13:12N 35°35' E 139°55'0 0.0
2015-Mar-29 12:18N 35°35' E 139°55'0 0.0
2015-Mar-29 11:30N 35°35' E 139°55'0 0.1
2015-Mar-29 10:30N 35°35' E 139°55'0 0.0
2015-Mar-29 09:18N 35°35' E 139°55'3 3.7
2015-Mar-29 08:33N 35°33' E 139°58'4 3.4
2015-Mar-29 07:18N 35°32' E 140°03'0 0.0
2015-Mar-29 06:24N 35°32' E 140°03'0 0.0
2015-Mar-29 04:24N 35°32' E 140°03'2 2.1
2015-Mar-29 03:32N 35°33' E 140°01'4 3.7
2015-Mar-29 02:33N 35°32' E 139°57'9 8.6
2015-Mar-29 01:33N 35°40' E 139°57'1 0.5
2015-Mar-29 00:29N 35°41' E 139°56'0 0.0
2015-Mar-28 23:29N 35°41' E 139°56'0 0.0
2015-Mar-28 22:17N 35°41' E 139°56'3 3.4
2015-Mar-28 21:30N 35°38' E 139°58'5 4.1
2015-Mar-28 20:24N 35°35' E 139°55'0 0.0
2015-Mar-28 19:27N 35°35' E 139°55'0 0.0
2015-Mar-28 18:31N 35°35' E 139°55'0 0.0
2015-Mar-28 17:30N 35°35' E 139°55'0 0.0
2015-Mar-28 16:29N 35°35' E 139°55'0 0.0
2015-Mar-28 15:30N 35°35' E 139°55'0 0.0
2015-Mar-28 14:28N 35°35' E 139°55'0 0.0
2015-Mar-28 13:33N 35°35' E 139°55'0 0.0
2015-Mar-28 12:32N 35°35' E 139°55'0 0.0
2015-Mar-28 11:33N 35°35' E 139°55'0 0.0
2015-Mar-28 10:12N 35°35' E 139°55'4 5.9
2015-Mar-28 09:33N 35°32' E 139°52'1111.2
2015-Mar-28 08:33N 35°24' E 139°42'2 2.0
2015-Mar-28 07:33N 35°24' E 139°40'0 0.0
2015-Mar-28 06:33N 35°24' E 139°40'0 0.0
2015-Mar-28 05:33N 35°24' E 139°40'0 0.0
2015-Mar-28 04:33N 35°24' E 139°40'2 2.4
2015-Mar-28 03:33N 35°25' E 139°42'1111.4
2015-Mar-28 02:33N 35°32' E 139°53'9 8.1
2015-Mar-28 01:29N 35°41' E 139°56'0 0.0
2015-Mar-27 23:32N 35°41' E 139°56'0 0.0
2015-Mar-27 22:32N 35°41' E 139°56'2 2.2
2015-Mar-27 21:33N 35°39' E 139°58'5 4.4
2015-Mar-27 20:27N 35°35' E 139°55'0 0.0
2015-Mar-27 19:24N 35°35' E 139°55'0 0.0
2015-Mar-27 18:33N 35°35' E 139°55'0 0.0
2015-Mar-27 17:33N 35°35' E 139°55'0 0.0
2015-Mar-27 16:27N 35°35' E 139°55'0 0.0
2015-Mar-27 15:33N 35°35' E 139°55'0 0.0
2015-Mar-27 14:33N 35°35' E 139°55'0 0.0
2015-Mar-27 13:27N 35°35' E 139°55'0 0.0
2015-Mar-27 12:21N 35°35' E 139°55'0 0.0
2015-Mar-27 11:31N 35°35' E 139°55'0 0.1
2015-Mar-27 10:33N 35°35' E 139°55'8 8.3
2015-Mar-27 09:33N 35°31' E 139°46'0 0.0
2015-Mar-27 08:33N 35°31' E 139°46'0 0.0
2015-Mar-27 07:27N 35°31' E 139°46'0 0.0
2015-Mar-27 06:33N 35°31' E 139°46'0 0.0
2015-Mar-27 05:33N 35°31' E 139°46'0 0.0
2015-Mar-27 04:33N 35°31' E 139°46'7 6.8
2015-Mar-27 03:33N 35°34' E 139°54'3 2.9
2015-Mar-27 02:33N 35°36' E 139°56'5 4.5
2015-Mar-27 01:32N 35°41' E 139°56'0 0.0
2015-Mar-27 00:26N 35°41' E 139°56'0 0.0
2015-Mar-26 23:14N 35°41' E 139°56'0 0.0
2015-Mar-26 22:26N 35°41' E 139°56'3 3.2
2015-Mar-26 21:32N 35°38' E 139°59'4 4.5
2015-Mar-26 20:33N 35°35' E 139°55'0 0.0
2015-Mar-26 18:33N 35°35' E 139°55'0 0.0
2015-Mar-26 17:30N 35°35' E 139°55'0 0.0
2015-Mar-26 16:24N 35°35' E 139°55'0 0.0
2015-Mar-26 15:27N 35°35' E 139°55'0 0.1
2015-Mar-26 14:27N 35°35' E 139°55'0 0.0
2015-Mar-26 13:21N 35°35' E 139°55'0 0.1
2015-Mar-26 12:27N 35°35' E 139°55'3 3.5
2015-Mar-26 11:33N 35°32' E 139°57'4 3.7
2015-Mar-26 10:22N 35°29' E 140°01'0 0.0
2015-Mar-26 09:28N 35°29' E 140°01'0 0.0
2015-Mar-26 08:22N 35°29' E 140°01'0 0.0
2015-Mar-26 07:16N 35°29' E 140°01'0 0.0
2015-Mar-26 06:22N 35°29' E 140°01'3 2.9
2015-Mar-26 05:28N 35°30' E 139°58'4 4.5
2015-Mar-26 04:33N 35°34' E 139°56'2 1.7
2015-Mar-26 03:32N 35°35' E 139°55'4 4.0
2015-Mar-26 02:33N 35°38' E 139°59'3 2.8
2015-Mar-26 01:31N 35°41' E 139°56'0 0.0
2015-Mar-26 00:24N 35°41' E 139°56'0 0.0
2015-Mar-25 23:30N 35°41' E 139°56'0 0.0
2015-Mar-25 22:30N 35°41' E 139°56'2 2.4
2015-Mar-25 21:33N 35°39' E 139°58'5 3.3
2015-Mar-25 20:05N 35°34' E 139°55'0 0.0
2015-Mar-25 19:29N 35°34' E 139°55'0 0.0
2015-Mar-25 18:29N 35°34' E 139°55'0 0.0
2015-Mar-25 17:29N 35°34' E 139°55'0 0.0
2015-Mar-25 16:23N 35°34' E 139°55'0 0.0
2015-Mar-25 15:29N 35°34' E 139°55'0 0.0
2015-Mar-25 14:29N 35°34' E 139°55'1 1.2
2015-Mar-25 13:33N 35°33' E 139°56'7 5.9
2015-Mar-25 12:27N 35°28' E 140°01'0 0.0
2015-Mar-25 11:30N 35°28' E 140°01'0 0.0
2015-Mar-25 10:33N 35°28' E 140°01'0 0.0
2015-Mar-25 09:30N 35°28' E 140°01'0 0.0
2015-Mar-25 08:33N 35°28' E 140°01'0 0.1
2015-Mar-25 07:33N 35°28' E 140°01'3 2.8
2015-Mar-25 06:29N 35°30' E 139°58'0 0.0
2015-Mar-25 05:17N 35°30' E 139°58'0 0.0
2015-Mar-25 04:29N 35°30' E 139°58'0 0.0
2015-Mar-25 03:05N 35°30' E 139°58'1 1.0
2015-Mar-25 02:33N 35°30' E 139°58'10 9.7
2015-Mar-25 01:33N 35°25' E 139°47'9 9.4
2015-Mar-25 00:33N 35°17' E 139°41'0 0.3
2015-Mar-24 23:25N 35°17' E 139°41'0 0.0
2015-Mar-24 22:28N 35°17' E 139°41'0 0.0
2015-Mar-24 21:31N 35°17' E 139°41'0 0.0
2015-Mar-24 20:31N 35°17' E 139°41'0 0.0
2015-Mar-24 19:31N 35°17' E 139°41'0 0.0
2015-Mar-24 18:31N 35°17' E 139°41'0 0.0
2015-Mar-24 17:31N 35°17' E 139°41'0 0.0
2015-Mar-24 16:31N 35°17' E 139°41'0 0.0
2015-Mar-24 15:31N 35°17' E 139°41'0 0.0
2015-Mar-24 14:31N 35°17' E 139°41'0 0.0
2015-Mar-24 13:31N 35°17' E 139°41'0 0.0
2015-Mar-24 12:31N 35°17' E 139°41'0 0.0
2015-Mar-24 11:31N 35°17' E 139°41'0 0.0
2015-Mar-24 10:31N 35°17' E 139°41'0 0.0
2015-Mar-24 09:28N 35°17' E 139°41'0 0.0
2015-Mar-24 08:31N 35°17' E 139°41'0 0.0
2015-Mar-24 07:31N 35°17' E 139°41'0 0.0
2015-Mar-24 06:31N 35°17' E 139°41'0 0.0
2015-Mar-24 05:31N 35°17' E 139°41'4 4.6
2015-Mar-24 04:33N 35°21' E 139°41'1110.9
2015-Mar-24 03:33N 35°29' E 139°50'1211.4
2015-Mar-24 02:33N 35°38' E 139°58'3 2.8
2015-Mar-24 01:33N 35°41' E 139°56'0 0.0
2015-Mar-24 00:33N 35°41' E 139°56'0 0.0
2015-Mar-23 23:33N 35°41' E 139°56'0 0.0
2015-Mar-23 22:27N 35°41' E 139°56'2 2.8
2015-Mar-23 21:33N 35°39' E 139°58'4 4.2
2015-Mar-23 20:31N 35°35' E 139°55'0 0.0
2015-Mar-23 19:31N 35°35' E 139°55'0 0.0
2015-Mar-23 18:31N 35°35' E 139°55'0 0.0
2015-Mar-23 17:25N 35°35' E 139°55'0 0.1
2015-Mar-23 16:31N 35°35' E 139°54'0 0.0
2015-Mar-23 15:31N 35°36' E 139°54'0 0.0
2015-Mar-23 14:31N 35°36' E 139°54'0 0.0
2015-Mar-23 13:31N 35°35' E 139°54'1 1.4
2015-Mar-23 12:33N 35°34' E 139°54'7 6.3
2015-Mar-23 11:27N 35°31' E 139°46'0 0.0
2015-Mar-23 10:33N 35°31' E 139°46'0 0.0
2015-Mar-23 09:33N 35°31' E 139°46'0 0.0
2015-Mar-23 08:30N 35°31' E 139°46'0 0.0
2015-Mar-23 07:33N 35°31' E 139°46'0 0.0
2015-Mar-23 06:30N 35°31' E 139°46'3 3.6
2015-Mar-23 05:33N 35°28' E 139°46'10 9.5
2015-Mar-23 04:33N 35°34' E 139°54'1 1.1
2015-Mar-23 03:25N 35°35' E 139°55'1 1.1
2015-Mar-23 02:33N 35°36' E 139°56'5 4.6
2015-Mar-23 01:32N 35°41' E 139°56'0 0.0
2015-Mar-23 00:32N 35°41' E 139°56'0 0.0
2015-Mar-22 23:26N 35°41' E 139°56'0 0.0
2015-Mar-22 22:26N 35°41' E 139°56'2 2.4
2015-Mar-22 21:33N 35°39' E 139°58'5 4.6
2015-Mar-22 20:31N 35°35' E 139°55'0 0.0
2015-Mar-22 19:13N 35°35' E 139°55'0 0.0
2015-Mar-22 18:31N 35°35' E 139°55'0 0.0
2015-Mar-22 16:31N 35°35' E 139°55'0 0.0
2015-Mar-22 15:13N 35°35' E 139°55'0 0.0
2015-Mar-22 14:13N 35°35' E 139°55'0 0.0
2015-Mar-22 13:28N 35°35' E 139°55'0 0.0
2015-Mar-22 12:31N 35°35' E 139°55'0 0.0
2015-Mar-22 11:31N 35°35' E 139°55'0 0.0
2015-Mar-22 10:31N 35°35' E 139°55'0 0.0
2015-Mar-22 09:25N 35°35' E 139°55'5 5.7
2015-Mar-22 08:33N 35°31' E 139°60'1 0.3
2015-Mar-22 04:32N 35°30' E 140°00'3 2.6
2015-Mar-22 03:33N 35°32' E 139°58'3 3.2
2015-Mar-22 02:32N 35°35' E 139°55'  

Dump ship's entire track history